Time;durP1;ratioP1;P1;durP2;ratioP2;P2;SDS_P1;SDS_P2;PMS_P1;PMS_P2;Temp;Humidity;BMP_temperature;BMP_pressure;BME280_temperature;BME280_humidity;BME280_pressure;Samples;Min_cycle;Max_cycle;Signal;HPM_P1;HPM_P2
2022/06/06 00:00:43;;;;;;;50.50;37.90;;;;;;;;;;4966396;28;20449;-93
2022/06/06 00:03:09;;;;;;;59.80;38.00;;;;;;;;;;4959345;29;20438;-91
2022/06/06 00:05:36;;;;;;;54.37;37.73;;;;;;;;;;4945954;29;20497;-92
2022/06/06 00:08:03;;;;;;;51.93;38.17;;;;;;;;;;4958525;29;20512;-92
2022/06/06 00:10:29;;;;;;;53.13;36.77;;;;;;;;;;4962880;29;20485;-92
2022/06/06 00:12:55;;;;;;;53.37;37.97;;;;;;;;;;4960147;29;20445;-91
2022/06/06 00:15:24;;;;;;;50.63;30.90;;;;;;;;;;4964675;29;20407;-93
2022/06/06 00:17:50;;;;;;;53.43;36.07;;;;;;;;;;4944718;29;20481;-93
2022/06/06 00:20:24;;;;;;;47.33;33.37;;;;;;;;;;4961223;29;20442;-90
2022/06/06 00:22:50;;;;;;;54.83;38.27;;;;;;;;;;4928581;29;20426;-91
2022/06/06 00:25:19;;;;;;;51.63;35.10;;;;;;;;;;4940769;29;20521;-91
2022/06/06 00:27:48;;;;;;;53.33;35.73;;;;;;;;;;4958886;29;20462;-92
2022/06/06 00:30:14;;;;;;;49.53;34.17;;;;;;;;;;4958298;29;20484;-91
2022/06/06 00:35:27;;;;;;;48.30;33.13;;;;;;;;;;4962819;29;20425;-92
2022/06/06 00:37:57;;;;;;;44.93;33.87;;;;;;;;;;4955416;29;20441;-91
2022/06/06 00:40:24;;;;;;;46.90;31.67;;;;;;;;;;4956234;29;20418;-92
2022/06/06 00:42:53;;;;;;;47.63;33.83;;;;;;;;;;4951828;29;20520;-90
2022/06/06 00:45:22;;;;;;;52.40;35.40;;;;;;;;;;4948493;29;20414;-92
2022/06/06 00:47:54;;;;;;;44.63;30.87;;;;;;;;;;4943028;29;20972;-91
2022/06/06 00:50:22;;;;;;;46.63;33.40;;;;;;;;;;4963242;29;20469;-91
2022/06/06 00:52:50;;;;;;;47.10;32.03;;;;;;;;;;4945649;29;20701;-92
2022/06/06 00:55:27;;;;;;;40.67;29.43;;;;;;;;;;4963590;29;20485;-92
2022/06/06 00:57:56;;;;;;;48.67;30.07;;;;;;;;;;4960338;29;20446;-92
2022/06/06 01:00:23;;;;;;;44.10;30.23;;;;;;;;;;4947677;29;20445;-92
2022/06/06 01:02:56;;;;;;;50.13;32.63;;;;;;;;;;4930466;29;20471;-91
2022/06/06 01:05:23;;;;;;;40.13;28.93;;;;;;;;;;4925517;29;20419;-93
2022/06/06 01:07:49;;;;;;;39.37;28.17;;;;;;;;;;4958962;29;20430;-93
2022/06/06 01:10:16;;;;;;;42.70;28.53;;;;;;;;;;4942545;29;20568;-92
2022/06/06 01:12:43;;;;;;;37.33;27.00;;;;;;;;;;4964609;29;20446;-93
2022/06/06 01:15:14;;;;;;;41.83;28.67;;;;;;;;;;4951563;29;20439;-93
2022/06/06 01:17:45;;;;;;;39.20;28.73;;;;;;;;;;4968352;29;20446;-91
2022/06/06 01:20:22;;;;;;;34.97;26.63;;;;;;;;;;4966984;29;20442;-92
2022/06/06 01:23:04;;;;;;;33.00;25.57;;;;;;;;;;4958677;29;20460;-92
2022/06/06 01:25:42;;;;;;;38.17;27.90;;;;;;;;;;4963642;28;20662;-92
2022/06/06 01:28:27;;;;;;;35.53;26.93;;;;;;;;;;4971154;29;20422;-93
2022/06/06 01:30:55;;;;;;;37.17;25.83;;;;;;;;;;4958950;29;20477;-91
2022/06/06 01:33:28;;;;;;;41.73;26.67;;;;;;;;;;4969093;29;20446;-93
2022/06/06 01:36:00;;;;;;;34.83;27.43;;;;;;;;;;4941240;29;20405;-92
2022/06/06 01:38:26;;;;;;;43.00;27.47;;;;;;;;;;4953361;29;20447;-91
2022/06/06 01:41:21;;;;;;;40.87;26.80;;;;;;;;;;4955713;29;20431;-93
2022/06/06 01:44:01;;;;;;;45.57;29.17;;;;;;;;;;4908091;29;20899;-91
2022/06/06 01:46:32;;;;;;;41.53;30.47;;;;;;;;;;4976616;28;20422;-91
2022/06/06 01:48:59;;;;;;;43.30;29.70;;;;;;;;;;4958511;28;20503;-92
2022/06/06 01:51:30;;;;;;;38.33;26.90;;;;;;;;;;4961717;28;20458;-91
2022/06/06 01:53:57;;;;;;;42.87;27.67;;;;;;;;;;4972048;28;20474;-90
2022/06/06 01:56:28;;;;;;;46.53;27.47;;;;;;;;;;4976529;28;20465;-91
2022/06/06 01:58:54;;;;;;;49.80;30.97;;;;;;;;;;4974818;29;20419;-89
2022/06/06 02:01:20;;;;;;;47.67;28.77;;;;;;;;;;4971945;29;20446;-90
2022/06/06 02:03:46;;;;;;;47.83;29.00;;;;;;;;;;4955924;29;20453;-90
2022/06/06 02:06:13;;;;;;;48.53;29.20;;;;;;;;;;4971474;29;20454;-91
2022/06/06 02:08:39;;;;;;;51.00;29.07;;;;;;;;;;4952195;29;20438;-90
2022/06/06 02:11:06;;;;;;;39.70;25.77;;;;;;;;;;4958881;28;20453;-91
2022/06/06 02:13:34;;;;;;;41.90;27.33;;;;;;;;;;4975736;29;20453;-90
2022/06/06 02:16:03;;;;;;;44.33;29.30;;;;;;;;;;4960303;28;20423;-91
2022/06/06 02:18:29;;;;;;;50.43;30.00;;;;;;;;;;4972636;29;20437;-90
2022/06/06 02:20:55;;;;;;;42.40;25.67;;;;;;;;;;4956966;29;20501;-89
2022/06/06 02:23:24;;;;;;;50.03;29.17;;;;;;;;;;4970252;29;20434;-91
2022/06/06 02:25:54;;;;;;;45.33;28.37;;;;;;;;;;4968985;28;20469;-90
2022/06/06 02:28:20;;;;;;;46.50;26.23;;;;;;;;;;4960024;29;20437;-91
2022/06/06 02:30:46;;;;;;;51.40;28.50;;;;;;;;;;4960966;29;20465;-91
2022/06/06 02:33:12;;;;;;;51.00;31.47;;;;;;;;;;4966116;29;20498;-90
2022/06/06 02:35:40;;;;;;;47.00;30.67;;;;;;;;;;4966320;29;20438;-90
2022/06/06 02:38:07;;;;;;;54.17;30.30;;;;;;;;;;4951799;29;20425;-91
2022/06/06 02:40:33;;;;;;;44.30;29.67;;;;;;;;;;4966390;29;20509;-89
2022/06/06 02:42:59;;;;;;;51.90;31.40;;;;;;;;;;4948043;29;20423;-90
2022/06/06 02:45:25;;;;;;;49.07;30.93;;;;;;;;;;4965497;29;20411;-90
2022/06/06 02:47:53;;;;;;;42.50;27.83;;;;;;;;;;4945374;29;20783;-91
2022/06/06 02:50:20;;;;;;;51.27;29.97;;;;;;;;;;4957547;29;20509;-90
2022/06/06 02:52:46;;;;;;;52.20;31.13;;;;;;;;;;4956700;29;21021;-91
2022/06/06 02:55:13;;;;;;;52.00;30.07;;;;;;;;;;4955644;29;20441;-90
2022/06/06 02:57:40;;;;;;;51.13;29.73;;;;;;;;;;4968495;28;20454;-91
2022/06/06 03:00:08;;;;;;;50.37;30.13;;;;;;;;;;4950392;29;20477;-90
2022/06/06 03:02:35;;;;;;;61.03;30.47;;;;;;;;;;4961630;29;20422;-90
2022/06/06 03:05:01;;;;;;;54.10;31.90;;;;;;;;;;4941796;29;20457;-91
2022/06/06 03:07:41;;;;;;;54.07;31.37;;;;;;;;;;4959105;29;21080;-90
2022/06/06 03:10:12;;;;;;;51.20;30.80;;;;;;;;;;4937843;29;20508;-90
2022/06/06 03:12:57;;;;;;;60.73;33.13;;;;;;;;;;4924643;29;20430;-90
2022/06/06 03:15:37;;;;;;;55.67;31.90;;;;;;;;;;4957847;29;20434;-89
2022/06/06 03:20:54;;;;;;;52.07;29.93;;;;;;;;;;4962443;29;20433;-90
2022/06/06 03:23:39;;;;;;;52.60;30.47;;;;;;;;;;4954498;29;20458;-90
2022/06/06 03:26:10;;;;;;;52.83;29.10;;;;;;;;;;4964557;28;20432;-90
2022/06/06 03:28:49;;;;;;;46.93;29.70;;;;;;;;;;4949467;29;20525;-90
2022/06/06 03:31:21;;;;;;;47.00;29.23;;;;;;;;;;4952652;29;20438;-90
2022/06/06 03:33:59;;;;;;;41.90;26.40;;;;;;;;;;4958225;28;21155;-92
2022/06/06 03:36:38;;;;;;;49.47;30.43;;;;;;;;;;4923939;29;20534;-93
2022/06/06 03:39:16;;;;;;;42.03;26.70;;;;;;;;;;4945363;29;20453;-93
2022/06/06 03:41:50;;;;;;;36.53;25.60;;;;;;;;;;4938293;29;20596;-93
2022/06/06 03:44:25;;;;;;;34.37;21.17;;;;;;;;;;4950397;29;20459;-92
2022/06/06 03:46:51;;;;;;;29.20;20.33;;;;;;;;;;4958702;28;20429;-95
2022/06/06 03:49:25;;;;;;;28.83;19.33;;;;;;;;;;4938765;29;20458;-93
2022/06/06 03:52:00;;;;;;;29.53;19.40;;;;;;;;;;4929772;29;20497;-92
2022/06/06 03:54:39;;;;;;;17.97;14.97;;;;;;;;;;4940224;29;20981;-93
2022/06/06 03:57:14;;;;;;;16.67;12.37;;;;;;;;;;4952248;29;20433;-92
2022/06/06 03:59:41;;;;;;;17.73;13.50;;;;;;;;;;4940788;29;20441;-93
2022/06/06 04:02:09;;;;;;;14.07;10.90;;;;;;;;;;4950735;29;20464;-92
2022/06/06 04:04:35;;;;;;;14.93;13.13;;;;;;;;;;4958261;28;20422;-93
2022/06/06 04:07:02;;;;;;;11.57;10.10;;;;;;;;;;4942840;29;20525;-94
2022/06/06 04:09:29;;;;;;;11.27;10.13;;;;;;;;;;4951689;28;20520;-92
2022/06/06 04:12:10;;;;;;;14.53;11.10;;;;;;;;;;4958921;28;20817;-92
2022/06/06 04:14:39;;;;;;;13.93;10.97;;;;;;;;;;4937660;29;20484;-94
2022/06/06 04:17:19;;;;;;;13.90;11.77;;;;;;;;;;4945735;29;20446;-94
2022/06/06 04:19:45;;;;;;;15.43;12.00;;;;;;;;;;4940077;29;20922;-94
2022/06/06 04:22:28;;;;;;;12.63;10.07;;;;;;;;;;4961516;28;20838;-93
2022/06/06 04:25:03;;;;;;;12.30;11.03;;;;;;;;;;4957115;29;20484;-92
2022/06/06 04:27:42;;;;;;;11.90;10.70;;;;;;;;;;4949084;29;20473;-94
2022/06/06 04:30:15;;;;;;;11.80;10.60;;;;;;;;;;4950047;29;20484;-92
2022/06/06 04:32:51;;;;;;;12.73;11.43;;;;;;;;;;4941952;29;20442;-93
2022/06/06 04:35:25;;;;;;;11.73;10.57;;;;;;;;;;4925127;29;20515;-93
2022/06/06 04:37:51;;;;;;;15.27;10.53;;;;;;;;;;4929132;29;21012;-93
2022/06/06 04:40:38;;;;;;;13.60;10.37;;;;;;;;;;4958508;29;20430;-91
2022/06/06 04:43:07;;;;;;;10.47;9.40;;;;;;;;;;4940908;29;20443;-91
2022/06/06 04:45:44;;;;;;;10.30;9.30;;;;;;;;;;4950436;29;20446;-92
2022/06/06 04:48:11;;;;;;;11.20;10.10;;;;;;;;;;4959744;29;20512;-92
2022/06/06 04:50:41;;;;;;;12.10;10.60;;;;;;;;;;4959496;29;20981;-93
2022/06/06 04:53:09;;;;;;;12.83;10.07;;;;;;;;;;4959434;29;20829;-95
2022/06/06 04:55:40;;;;;;;13.27;11.50;;;;;;;;;;4940285;29;20521;-94
2022/06/06 04:58:10;;;;;;;10.60;9.50;;;;;;;;;;4958634;29;20418;-94
2022/06/06 05:00:36;;;;;;;11.17;10.10;;;;;;;;;;4940155;29;20492;-91
2022/06/06 05:03:03;;;;;;;14.73;10.97;;;;;;;;;;4955191;29;20439;-93
2022/06/06 05:05:36;;;;;;;11.50;10.40;;;;;;;;;;4939933;29;20422;-93
2022/06/06 05:08:27;;;;;;;12.07;10.77;;;;;;;;;;4956704;29;21046;-91
2022/06/06 05:11:02;;;;;;;13.07;10.87;;;;;;;;;;4925718;29;20470;-94
2022/06/06 05:13:36;;;;;;;11.33;10.20;;;;;;;;;;4956664;29;20523;-94
2022/06/06 05:16:05;;;;;;;9.80;8.90;;;;;;;;;;4942928;29;20410;-93
2022/06/06 05:18:37;;;;;;;11.32;10.20;;;;;;;;;;4267971;29;10000688;-92
2022/06/06 05:21:13;;;;;;;11.13;9.20;;;;;;;;;;4927465;29;20737;-92
2022/06/06 05:23:57;;;;;;;11.20;10.10;;;;;;;;;;4941777;28;20553;-91
2022/06/06 05:26:26;;;;;;;12.10;10.00;;;;;;;;;;4931323;29;20438;-93
2022/06/06 05:29:11;;;;;;;10.23;9.43;;;;;;;;;;4937006;29;20439;-93
2022/06/06 05:31:55;;;;;;;10.10;8.17;;;;;;;;;;4927836;29;20966;-94
2022/06/06 05:34:25;;;;;;;10.67;9.57;;;;;;;;;;4920544;29;20466;-93
2022/06/06 05:36:51;;;;;;;10.33;8.90;;;;;;;;;;4924471;29;20947;-93
2022/06/06 05:39:56;;;;;;;9.67;8.70;;;;;;;;;;4934775;29;20427;-92
2022/06/06 05:42:28;;;;;;;10.03;8.53;;;;;;;;;;4873426;29;21017;-92
2022/06/06 05:45:02;;;;;;;10.47;8.83;;;;;;;;;;4860305;29;20447;-93
2022/06/06 05:47:31;;;;;;;9.40;8.60;;;;;;;;;;4901158;29;20465;-92
2022/06/06 05:50:16;;;;;;;10.27;9.03;;;;;;;;;;4929970;29;20923;-91
2022/06/06 05:52:51;;;;;;;7.10;6.40;;;;;;;;;;4941005;29;20447;-92
2022/06/06 05:55:23;;;;;;;7.50;6.80;;;;;;;;;;4942317;29;20448;-93
2022/06/06 05:57:49;;;;;;;8.30;7.17;;;;;;;;;;4935512;29;20485;-91
2022/06/06 06:00:26;;;;;;;9.80;8.07;;;;;;;;;;4921537;29;20442;-92
2022/06/06 06:03:11;;;;;;;7.60;6.90;;;;;;;;;;4954756;29;20500;-92
2022/06/06 06:05:56;;;;;;;7.90;7.33;;;;;;;;;;4952868;29;20451;-93
2022/06/06 06:08:33;;;;;;;9.53;8.73;;;;;;;;;;4942676;29;21013;-92
2022/06/06 06:11:18;;;;;;;7.10;6.60;;;;;;;;;;4939716;29;20488;-93
2022/06/06 06:13:59;;;;;;;6.83;5.93;;;;;;;;;;4954741;29;20456;-91
2022/06/06 06:16:29;;;;;;;7.10;6.70;;;;;;;;;;4937033;29;20426;-93
2022/06/06 06:19:01;;;;;;;7.10;6.60;;;;;;;;;;4936673;29;20486;-94
2022/06/06 06:21:29;;;;;;;7.33;6.70;;;;;;;;;;4942391;29;20542;-94
2022/06/06 06:24:08;;;;;;;6.33;5.90;;;;;;;;;;4930601;29;20506;-93
2022/06/06 06:26:37;;;;;;;7.07;6.57;;;;;;;;;;4947509;29;20450;-93
2022/06/06 06:29:10;;;;;;;8.80;6.37;;;;;;;;;;4928704;29;20461;-93
2022/06/06 06:31:48;;;;;;;5.60;5.30;;;;;;;;;;4938583;28;20434;-92
2022/06/06 06:34:28;;;;;;;5.50;5.30;;;;;;;;;;4932081;29;20494;-92
2022/06/06 06:37:14;;;;;;;5.70;5.50;;;;;;;;;;4939984;29;20442;-93
2022/06/06 06:39:40;;;;;;;6.83;6.43;;;;;;;;;;4947437;29;20458;-91
2022/06/06 06:42:33;;;;;;;6.37;5.87;;;;;;;;;;4952465;29;20458;-92
2022/06/06 06:45:03;;;;;;;6.27;5.70;;;;;;;;;;4957317;28;20415;-92
2022/06/06 06:47:30;;;;;;;6.93;6.23;;;;;;;;;;4950322;28;20443;-93
2022/06/06 06:49:58;;;;;;;5.83;5.53;;;;;;;;;;4953741;29;20487;-92
2022/06/06 06:52:34;;;;;;;6.20;5.70;;;;;;;;;;4945587;29;20445;-93
2022/06/06 06:55:03;;;;;;;6.53;6.03;;;;;;;;;;4950706;29;20894;-94
2022/06/06 06:57:33;;;;;;;6.17;5.63;;;;;;;;;;4944119;29;20521;-93
2022/06/06 07:00:09;;;;;;;5.77;5.47;;;;;;;;;;4924051;29;20423;-94
2022/06/06 07:08:52;;;;;;;5.53;5.20;;;;;;;;;;4943835;29;20425;-94
2022/06/06 07:11:26;;;;;;;4.77;4.50;;;;;;;;;;4943085;29;20474;-93
2022/06/06 07:13:52;;;;;;;4.23;4.10;;;;;;;;;;4959909;29;20442;-93
2022/06/06 07:16:31;;;;;;;5.40;5.00;;;;;;;;;;4957783;29;20442;-94
2022/06/06 07:19:04;;;;;;;4.93;4.83;;;;;;;;;;4962241;29;20442;-93
2022/06/06 07:21:32;;;;;;;3.70;3.60;;;;;;;;;;4965268;29;20481;-93
2022/06/06 07:23:59;;;;;;;4.20;4.10;;;;;;;;;;4946720;28;20818;-94
2022/06/06 07:26:26;;;;;;;4.70;4.60;;;;;;;;;;4954523;29;20426;-94
2022/06/06 07:28:52;;;;;;;3.53;3.53;;;;;;;;;;4954376;28;20493;-96
2022/06/06 07:31:32;;;;;;;3.40;3.20;;;;;;;;;;4958987;28;20483;-93
2022/06/06 07:34:20;;;;;;;3.53;3.43;;;;;;;;;;4945983;29;20434;-93
2022/06/06 07:36:56;;;;;;;3.33;3.33;;;;;;;;;;4964491;29;20945;-92
2022/06/06 07:39:39;;;;;;;2.80;2.80;;;;;;;;;;4960442;28;20445;-93
2022/06/06 07:42:26;;;;;;;3.50;3.30;;;;;;;;;;4953299;29;20407;-95
2022/06/06 07:45:09;;;;;;;3.10;3.10;;;;;;;;;;4971047;29;20441;-95
2022/06/06 07:47:55;;;;;;;2.37;2.30;;;;;;;;;;4949750;29;20425;-91
2022/06/06 07:50:45;;;;;;;3.00;3.00;;;;;;;;;;4972353;28;20487;-95
2022/06/06 07:53:34;;;;;;;3.80;2.50;;;;;;;;;;4941911;29;20426;-96
2022/06/06 07:56:24;;;;;;;2.47;2.30;;;;;;;;;;4966088;28;20583;-94
2022/06/06 07:59:10;;;;;;;;;;;;;;;;;;;;;
2022/06/06 08:02:00;;;;;;;2.27;2.27;;;;;;;;;;4974719;28;20453;-94
2022/06/06 08:04:46;;;;;;;2.10;2.10;;;;;;;;;;4974134;28;20413;-92
2022/06/06 08:07:44;;;;;;;2.10;2.10;;;;;;;;;;4967634;29;21010;-94
2022/06/06 08:10:27;;;;;;;1.90;1.90;;;;;;;;;;4768864;23;10002506;-96
2022/06/06 08:13:15;;;;;;;2.37;2.20;;;;;;;;;;4949413;29;20462;-92
2022/06/06 08:15:56;;;;;;;1.70;1.70;;;;;;;;;;4949340;29;20485;-93
2022/06/06 08:29:34;;;;;;;1.60;1.60;;;;;;;;;;4874062;29;20449;-94
2022/06/06 08:32:05;;;;;;;1.67;1.60;;;;;;;;;;4957464;29;20435;-93
2022/06/06 08:34:31;;;;;;;1.43;1.43;;;;;;;;;;4933098;29;20438;-95
2022/06/06 08:37:13;;;;;;;1.67;1.67;;;;;;;;;;4955552;29;20526;-93
2022/06/06 08:39:57;;;;;;;1.57;1.57;;;;;;;;;;4941489;29;20670;-92
2022/06/06 08:42:43;;;;;;;1.07;1.07;;;;;;;;;;4955095;29;20521;-94
2022/06/06 08:45:49;;;;;;;;;;;;;;;;;;;;;
2022/06/06 08:48:33;;;;;;;1.00;1.00;;;;;;;;;;5334132;23;20569;-93
2022/06/06 08:51:24;;;;;;;;;;;;;;;;;;;;;
2022/06/06 08:54:31;;;;;;;1.40;1.40;;;;;;;;;;4929269;29;20467;-94
2022/06/06 08:57:03;;;;;;;1.30;1.30;;;;;;;;;;4857624;29;20462;-92
2022/06/06 09:12:45;;;;;;;2.83;1.10;;;;;;;;;;4364120;23;20489;-92
2022/06/06 09:15:34;;;;;;;1.33;1.30;;;;;;;;;;4937870;28;20439;-91
2022/06/06 09:23:42;;;;;;;1.03;1.03;;;;;;;;;;4948322;29;20527;-90
2022/06/06 09:26:32;;;;;;;2.20;1.10;;;;;;;;;;4949241;29;20447;-94
2022/06/06 09:29:39;;;;;;;0.93;0.93;;;;;;;;;;4954912;29;20438;-94
2022/06/06 09:32:14;;;;;;;0.93;0.73;;;;;;;;;;4875630;29;20530;-91
2022/06/06 09:34:59;;;;;;;1.13;1.13;;;;;;;;;;4895571;29;20437;-92
2022/06/06 09:37:48;;;;;;;1.40;1.03;;;;;;;;;;4939050;28;20467;-91
2022/06/06 09:40:34;;;;;;;1.00;1.00;;;;;;;;;;4933904;29;20428;-92
2022/06/06 09:43:08;;;;;;;1.07;1.07;;;;;;;;;;4947667;29;20493;-92
2022/06/06 09:45:42;;;;;;;1.07;1.07;;;;;;;;;;4596871;29;10000606;-91
2022/06/06 09:48:37;;;;;;;1.43;1.10;;;;;;;;;;4955632;29;20224;-95
2022/06/06 09:51:06;;;;;;;1.20;1.10;;;;;;;;;;4927935;29;20470;-92
2022/06/06 09:53:38;;;;;;;1.53;1.43;;;;;;;;;;4939107;29;20555;-92
2022/06/06 09:59:16;;;;;;;2.43;1.10;;;;;;;;;;4939664;29;20458;-91
2022/06/06 10:02:04;;;;;;;1.07;1.07;;;;;;;;;;4944923;29;20439;-92
2022/06/06 10:04:32;;;;;;;1.50;1.40;;;;;;;;;;4946983;29;20446;-91
2022/06/06 10:07:32;;;;;;;1.27;1.23;;;;;;;;;;5255907;23;20473;-91
2022/06/06 10:10:22;;;;;;;1.10;1.10;;;;;;;;;;4929729;29;20836;-91
2022/06/06 10:13:01;;;;;;;1.53;1.53;;;;;;;;;;4925357;29;20443;-90
2022/06/06 10:15:27;;;;;;;0.80;0.80;;;;;;;;;;4936567;29;20471;-91
2022/06/06 10:17:59;;;;;;;1.10;1.10;;;;;;;;;;4951160;29;20506;-93
2022/06/06 10:20:25;;;;;;;0.93;0.93;;;;;;;;;;4931364;29;20451;-92
2022/06/06 10:22:51;;;;;;;0.80;0.80;;;;;;;;;;4949785;29;20429;-91
2022/06/06 10:25:17;;;;;;;1.07;0.97;;;;;;;;;;4934042;29;20432;-92
2022/06/06 10:27:52;;;;;;;1.07;0.90;;;;;;;;;;4949540;29;20506;-91
2022/06/06 10:30:28;;;;;;;0.80;0.80;;;;;;;;;;4934160;29;20506;-91
2022/06/06 10:33:18;;;;;;;1.13;1.10;;;;;;;;;;4957497;28;20434;-90
2022/06/06 10:36:10;;;;;;;1.00;1.00;;;;;;;;;;4931424;29;20467;-91
2022/06/06 10:39:01;;;;;;;1.50;1.50;;;;;;;;;;5080578;23;20514;-91
2022/06/06 10:41:56;;;;;;;1.50;1.40;;;;;;;;;;4957299;29;20478;-92
2022/06/06 10:44:40;;;;;;;1.77;1.77;;;;;;;;;;4944890;29;20448;-90
2022/06/06 10:55:52;;;;;;;1.13;1.00;;;;;;;;;;5011934;23;20540;-92
2022/06/06 10:58:44;;;;;;;1.00;1.00;;;;;;;;;;4956862;28;20430;-94
2022/06/06 11:09:47;;;;;;;1.13;1.13;;;;;;;;;;5093199;23;20493;-91
2022/06/06 11:12:44;;;;;;;1.00;1.00;;;;;;;;;;4975410;28;20440;-92
2022/06/06 11:15:14;;;;;;;1.00;1.00;;;;;;;;;;4959350;29;20442;-92
2022/06/06 11:20:47;;;;;;;1.23;1.23;;;;;;;;;;5934008;23;20392;-93
2022/06/06 11:23:37;;;;;;;1.00;1.00;;;;;;;;;;5010936;23;20536;-92
2022/06/06 11:26:09;;;;;;;1.80;1.50;;;;;;;;;;4953385;29;20438;-92
2022/06/06 11:31:49;;;;;;;1.30;1.30;;;;;;;;;;4965311;29;20483;-91
2022/06/06 11:34:49;;;;;;;2.90;2.80;;;;;;;;;;4949421;29;20424;-91
2022/06/06 11:37:27;;;;;;;1.60;1.57;;;;;;;;;;4951710;29;20519;-95
2022/06/06 11:40:19;;;;;;;3.03;1.40;;;;;;;;;;5117730;23;20536;-92
2022/06/06 11:51:35;;;;;;;1.40;1.40;;;;;;;;;;4974834;29;20469;-94
2022/06/06 11:54:22;;;;;;;1.70;1.70;;;;;;;;;;4938965;29;20431;-89
2022/06/06 11:57:19;;;;;;;6.73;1.93;;;;;;;;;;4971379;28;20430;-93
2022/06/06 12:00:04;;;;;;;1.13;1.13;;;;;;;;;;4977461;28;20444;-90
2022/06/06 12:03:01;;;;;;;1.13;1.13;;;;;;;;;;4949816;28;20455;-89
2022/06/06 12:05:53;;;;;;;1.40;1.30;;;;;;;;;;4965891;29;20442;-91
2022/06/06 12:08:26;;;;;;;1.10;1.10;;;;;;;;;;4953629;29;20419;-92
2022/06/06 12:11:14;;;;;;;1.20;1.20;;;;;;;;;;4966691;28;20474;-93
2022/06/06 12:14:06;;;;;;;2.30;1.10;;;;;;;;;;4971438;28;20441;-88
2022/06/06 12:16:55;;;;;;;1.17;1.03;;;;;;;;;;4973967;28;20445;-94
2022/06/06 12:19:56;;;;;;;;;;;;;;;;;;;;;
2022/06/06 12:22:55;;;;;;;0.73;0.73;;;;;;;;;;4972004;29;20462;-94
2022/06/06 12:25:40;;;;;;;1.33;1.33;;;;;;;;;;4920397;29;20478;-88
2022/06/06 12:28:26;;;;;;;0.90;0.90;;;;;;;;;;4982005;28;20448;-88
2022/06/06 12:31:01;;;;;;;1.57;0.93;;;;;;;;;;4951457;28;20539;-96
2022/06/06 12:34:05;;;;;;;1.00;1.00;;;;;;;;;;4953199;29;20480;-93
2022/06/06 12:36:52;;;;;;;1.90;1.30;;;;;;;;;;4975231;28;20487;-93
2022/06/06 12:39:37;;;;;;;0.90;0.90;;;;;;;;;;4957477;29;20434;-93
2022/06/06 12:42:28;;;;;;;1.30;1.30;;;;;;;;;;4969081;29;20544;-89
2022/06/06 12:45:16;;;;;;;1.60;1.60;;;;;;;;;;4927877;28;20445;-94
2022/06/06 12:48:13;;;;;;;1.10;1.10;;;;;;;;;;4971094;28;20480;-90
2022/06/06 12:51:04;;;;;;;1.30;1.30;;;;;;;;;;4937497;28;20478;-93
2022/06/06 12:53:49;;;;;;;1.00;1.00;;;;;;;;;;4972256;28;20805;-92
2022/06/06 12:56:40;;;;;;;1.00;1.00;;;;;;;;;;4964827;29;20486;-94
2022/06/06 12:59:25;;;;;;;1.47;1.30;;;;;;;;;;4949807;29;20430;-90
2022/06/06 13:02:22;;;;;;;3.80;1.60;;;;;;;;;;4955782;29;20438;-93
2022/06/06 13:05:02;;;;;;;1.10;1.10;;;;;;;;;;4982417;28;20517;-93
2022/06/06 13:07:28;;;;;;;1.10;1.10;;;;;;;;;;4976527;28;20460;-94
2022/06/06 13:10:09;;;;;;;1.23;1.23;;;;;;;;;;4958670;28;20438;-90
2022/06/06 13:12:35;;;;;;;1.00;1.00;;;;;;;;;;4960827;28;20443;-89
2022/06/06 13:15:02;;;;;;;1.13;1.13;;;;;;;;;;4963015;29;20460;-91
2022/06/06 13:17:49;;;;;;;2.00;1.90;;;;;;;;;;4972701;28;20441;-89
2022/06/06 13:20:51;;;;;;;1.47;1.40;;;;;;;;;;4969505;29;20454;-90
2022/06/06 13:23:35;;;;;;;1.70;1.70;;;;;;;;;;4869555;29;20504;-90
2022/06/06 13:26:15;;;;;;;1.47;1.47;;;;;;;;;;4942938;29;20453;-89
2022/06/06 13:28:51;;;;;;;1.50;1.47;;;;;;;;;;4984702;28;20468;-91
2022/06/06 13:31:39;;;;;;;;;;;;;;;;;;;;;
2022/06/06 13:34:11;;;;;;;3.80;3.60;;;;;;;;;;4964014;29;20866;-92
2022/06/06 13:36:37;;;;;;;1.20;1.20;;;;;;;;;;4966887;29;20497;-93
2022/06/06 13:39:05;;;;;;;1.10;1.00;;;;;;;;;;4994145;28;20426;-90
2022/06/06 13:41:52;;;;;;;1.30;1.20;;;;;;;;;;4957905;28;20562;-88
2022/06/06 13:44:34;;;;;;;1.20;1.20;;;;;;;;;;4975958;28;20422;-90
2022/06/06 13:47:09;;;;;;;1.53;1.27;;;;;;;;;;4981048;28;20483;-89
2022/06/06 13:50:08;;;;;;;1.13;1.13;;;;;;;;;;4968018;28;20456;-94
2022/06/06 13:52:53;;;;;;;1.00;1.00;;;;;;;;;;4873767;28;20444;-92
2022/06/06 14:06:18;;;;;;;1.67;1.67;;;;;;;;;;4916198;28;20510;-93
2022/06/06 14:08:59;;;;;;;1.17;1.17;;;;;;;;;;4915502;29;20735;-90
2022/06/06 14:14:37;;;;;;;1.10;1.10;;;;;;;;;;4878181;29;20429;-88
2022/06/06 14:17:27;;;;;;;2.67;2.37;;;;;;;;;;4913343;29;21059;-92
2022/06/06 14:19:58;;;;;;;1.00;1.00;;;;;;;;;;4900447;29;20437;-92
2022/06/06 14:41:00;;;;;;;0.83;0.83;;;;;;;;;;4959498;28;20539;-93
2022/06/06 14:43:46;;;;;;;1.03;1.03;;;;;;;;;;4923882;29;20447;-94
2022/06/06 14:46:53;;;;;;;1.10;1.00;;;;;;;;;;4940852;29;20439;-93
2022/06/06 14:49:45;;;;;;;1.30;1.00;;;;;;;;;;4984980;23;20509;-93
2022/06/06 14:52:26;;;;;;;1.10;1.10;;;;;;;;;;4924651;29;20443;-93
2022/06/06 14:54:57;;;;;;;2.37;0.90;;;;;;;;;;4943899;29;20502;-93
2022/06/06 14:57:28;;;;;;;1.30;1.20;;;;;;;;;;4946621;29;20439;-93
2022/06/06 14:59:58;;;;;;;6.00;1.60;;;;;;;;;;4948942;29;20474;-94
2022/06/06 15:02:45;;;;;;;1.20;1.20;;;;;;;;;;4944255;29;20442;-93
2022/06/06 15:05:13;;;;;;;1.00;1.00;;;;;;;;;;4949171;29;20434;-91
2022/06/06 15:07:53;;;;;;;1.43;1.40;;;;;;;;;;4957472;28;20450;-94
2022/06/06 15:10:46;;;;;;;3.70;1.27;;;;;;;;;;4947290;29;20455;-94
2022/06/06 15:30:10;;;;;;;1.50;1.40;;;;;;;;;;4949780;29;20426;-94
2022/06/06 15:46:38;;;;;;;1.30;1.30;;;;;;;;;;1765956;23;20702;-93
2022/06/06 15:49:28;;;;;;;1.40;1.40;;;;;;;;;;4950519;29;20574;-93
2022/06/06 15:52:35;;;;;;;;;;;;;;;;;;;;;
2022/06/06 15:55:24;;;;;;;1.43;1.33;;;;;;;;;;4919184;29;20432;-93
2022/06/06 15:58:03;;;;;;;1.23;1.23;;;;;;;;;;4945283;29;20438;-90
2022/06/06 16:00:33;;;;;;;2.47;1.40;;;;;;;;;;4943586;29;20542;-90
2022/06/06 16:03:28;;;;;;;1.33;1.13;;;;;;;;;;4923863;29;20455;-93
2022/06/06 16:06:22;;;;;;;1.77;1.50;;;;;;;;;;4935472;29;20513;-93
2022/06/06 16:09:05;;;;;;;0.90;0.90;;;;;;;;;;4925027;29;20503;-93
2022/06/06 16:11:41;;;;;;;1.30;1.20;;;;;;;;;;4934921;29;20482;-92
2022/06/06 16:14:19;;;;;;;0.93;0.70;;;;;;;;;;4943407;29;20435;-90
2022/06/06 16:16:53;;;;;;;1.00;1.00;;;;;;;;;;4939570;29;20447;-95
2022/06/06 16:19:31;;;;;;;0.87;0.77;;;;;;;;;;4926936;29;20440;-93
2022/06/06 16:22:03;;;;;;;1.10;1.10;;;;;;;;;;4948967;29;20426;-91
2022/06/06 16:24:45;;;;;;;0.70;0.70;;;;;;;;;;4938307;29;20199;-92
2022/06/06 16:27:30;;;;;;;1.00;0.90;;;;;;;;;;4908224;29;20436;-91
2022/06/06 16:32:49;;;;;;;1.00;1.00;;;;;;;;;;4954526;28;20469;-93
2022/06/06 16:35:28;;;;;;;1.30;1.30;;;;;;;;;;4932898;29;20475;-92
2022/06/06 16:38:12;;;;;;;1.27;1.20;;;;;;;;;;4938248;29;20438;-93
2022/06/06 16:40:46;;;;;;;1.40;0.83;;;;;;;;;;4940459;28;20408;-92
2022/06/06 16:48:45;;;;;;;1.63;1.10;;;;;;;;;;4959534;28;20446;-90
2022/06/06 16:54:10;;;;;;;0.90;0.90;;;;;;;;;;5023327;23;20527;-93
2022/06/06 16:56:57;;;;;;;0.90;0.90;;;;;;;;;;5399300;23;20473;-91
2022/06/06 17:20:39;;;;;;;1.03;1.03;;;;;;;;;;5166407;23;20520;-90
2022/06/06 17:23:14;;;;;;;1.30;1.10;;;;;;;;;;4973528;23;20587;-95
2022/06/06 17:25:49;;;;;;;1.00;1.00;;;;;;;;;;4956781;29;20498;-93
2022/06/06 17:28:30;;;;;;;1.50;1.50;;;;;;;;;;4954147;29;20443;-94
2022/06/06 17:31:04;;;;;;;1.30;1.30;;;;;;;;;;4958646;29;20486;-93
2022/06/06 17:33:54;;;;;;;1.10;1.10;;;;;;;;;;4957460;28;20461;-94
2022/06/06 17:39:15;;;;;;;1.00;1.00;;;;;;;;;;5073020;23;20519;-94
2022/06/06 17:42:00;;;;;;;1.40;1.40;;;;;;;;;;4937310;28;20446;-92
2022/06/06 17:44:41;;;;;;;1.70;1.70;;;;;;;;;;4936002;29;20484;-92
2022/06/06 17:47:12;;;;;;;3.50;1.40;;;;;;;;;;4939849;29;20455;-90
2022/06/06 17:49:59;;;;;;;1.73;1.30;;;;;;;;;;4931699;29;20427;-91
2022/06/06 17:52:46;;;;;;;1.20;1.20;;;;;;;;;;4926154;29;20566;-92
2022/06/06 17:55:32;;;;;;;1.70;1.60;;;;;;;;;;4941089;29;20450;-89
2022/06/06 17:58:24;;;;;;;1.57;1.57;;;;;;;;;;4928508;29;20502;-89
2022/06/06 18:01:07;;;;;;;1.40;1.40;;;;;;;;;;4934912;29;20435;-90
2022/06/06 18:03:56;;;;;;;2.13;1.90;;;;;;;;;;4934798;29;20411;-90
2022/06/06 18:06:41;;;;;;;1.40;1.40;;;;;;;;;;4954548;29;20439;-90
2022/06/06 18:09:24;;;;;;;3.57;3.30;;;;;;;;;;4955301;29;20431;-91
2022/06/06 18:12:06;;;;;;;1.60;1.50;;;;;;;;;;4949484;29;20479;-91
2022/06/06 18:14:40;;;;;;;1.50;1.50;;;;;;;;;;4929254;29;20447;-92
2022/06/06 18:17:16;;;;;;;1.83;1.53;;;;;;;;;;4954059;29;20438;-91
2022/06/06 18:19:47;;;;;;;2.67;1.37;;;;;;;;;;4922091;29;20562;-92
2022/06/06 18:22:25;;;;;;;1.50;1.50;;;;;;;;;;4933404;29;20488;-91
2022/06/06 18:24:52;;;;;;;2.33;2.23;;;;;;;;;;4928216;29;20455;-90
2022/06/06 18:27:25;;;;;;;1.87;1.77;;;;;;;;;;4934052;29;20419;-90
2022/06/06 18:29:57;;;;;;;1.47;1.47;;;;;;;;;;4926582;29;20544;-90
2022/06/06 18:32:27;;;;;;;5.07;2.00;;;;;;;;;;4939270;29;20459;-90